Terminal Aerodrome Forecast
Issued by NWS Amarillo, TX

Home | Current Version | Previous Version | Text Only | Print | Product List | Glossary On
Versions: 1 2 3 4 5 6 7 8 9 10 11 12 13 14 15 16 17 18 19 20 21 22 23 24
000
FTUS44 KAMA 211120
TAFDHT
TAF
KDHT 211120Z 2112/2212 25010KT P6SM FEW200
     FM211600 23020G30KT P6SM FEW200
     FM220200 22010KT P6SM FEW250
     FM220800 36015G23KT P6SM FEW250=

USA.gov is the U.S. government's official web portal to all federal, state and local government web resources and services.